Smyre, North Carolina
Current Conditions -  °F | °C
As of 2:54 AM on Saturday 20 Dec 2014 (Local Time) from KAKH Reporting Station
Overcast Overcast  
Wind Chill: 42°   Ceiling: 5500
Heat Index: 44°   Visibility: 10mi
Dew Point: 30°   Wind: 5mph
Humidity: 58%   Direction: 30°NNE
Pressure: 30.17"   Gusts: NA
Location:  35.2205°N, 81.2501°W
Report Text: KAKH 200754Z AUTO 03004KT 10SM BKN055 OVC120 07/M01 A3017 RMK AO2 SLP218 T00671011
Loading
Personal Weather Stations






























Interactive Weather Map New forecast layout! Learn more

10-Day Weather Forecast

Advertisements
Track Severe Weather on mobile